sensor_id;sensor_type;location;lat;lon;timestamp;pressure;altitude;pressure_sealevel;temperature;humidity
41967;BME280;27656;53.068;8.818;2024-01-25T00:01:31;102202.72;;;7.13;100.00
41967;BME280;27656;53.068;8.818;2024-01-25T00:03:58;102206.19;;;7.13;100.00
41967;BME280;27656;53.068;8.818;2024-01-25T00:06:24;102208.44;;;7.19;100.00
41967;BME280;27656;53.068;8.818;2024-01-25T00:08:52;102204.31;;;7.15;100.00
41967;BME280;27656;53.068;8.818;2024-01-25T00:11:18;102200.63;;;7.18;100.00
41967;BME280;27656;53.068;8.818;2024-01-25T00:13:45;102206.84;;;7.17;100.00
41967;BME280;27656;53.068;8.818;2024-01-25T00:16:11;102209.19;;;7.21;100.00
41967;BME280;27656;53.068;8.818;2024-01-25T00:18:38;102201.38;;;7.20;100.00
41967;BME280;27656;53.068;8.818;2024-01-25T00:21:05;102204.22;;;7.17;100.00
41967;BME280;27656;53.068;8.818;2024-01-25T00:23:32;102195.16;;;7.21;100.00
41967;BME280;27656;53.068;8.818;2024-01-25T00:25:59;102210.63;;;7.26;100.00
41967;BME280;27656;53.068;8.818;2024-01-25T00:28:26;102207.16;;;7.25;100.00
41967;BME280;27656;53.068;8.818;2024-01-25T00:30:52;102213.16;;;7.27;100.00
41967;BME280;27656;53.068;8.818;2024-01-25T00:33:19;102203.63;;;7.26;100.00
41967;BME280;27656;53.068;8.818;2024-01-25T00:35:46;102206.34;;;7.25;100.00
41967;BME280;27656;53.068;8.818;2024-01-25T00:38:13;102210.84;;;7.22;100.00
41967;BME280;27656;53.068;8.818;2024-01-25T00:40:40;102215.13;;;7.23;100.00
41967;BME280;27656;53.068;8.818;2024-01-25T00:43:06;102207.47;;;7.20;100.00
41967;BME280;27656;53.068;8.818;2024-01-25T00:45:33;102213.78;;;7.18;100.00
41967;BME280;27656;53.068;8.818;2024-01-25T00:48:00;102220.38;;;7.11;100.00
41967;BME280;27656;53.068;8.818;2024-01-25T00:50:27;102215.50;;;7.05;100.00
41967;BME280;27656;53.068;8.818;2024-01-25T00:52:54;102209.91;;;6.96;100.00
41967;BME280;27656;53.068;8.818;2024-01-25T00:55:21;102210.41;;;6.89;100.00
41967;BME280;27656;53.068;8.818;2024-01-25T00:57:48;102212.22;;;6.88;100.00
41967;BME280;27656;53.068;8.818;2024-01-25T01:00:15;102217.75;;;6.84;100.00
41967;BME280;27656;53.068;8.818;2024-01-25T01:02:45;102206.78;;;6.77;100.00
41967;BME280;27656;53.068;8.818;2024-01-25T01:05:12;102219.47;;;6.70;100.00
41967;BME280;27656;53.068;8.818;2024-01-25T01:07:40;102218.91;;;6.65;100.00
41967;BME280;27656;53.068;8.818;2024-01-25T01:10:11;102227.72;;;6.64;100.00
41967;BME280;27656;53.068;8.818;2024-01-25T01:12:38;102228.47;;;6.52;100.00
41967;BME280;27656;53.068;8.818;2024-01-25T01:15:04;102230.00;;;6.56;100.00
41967;BME280;27656;53.068;8.818;2024-01-25T01:17:31;102232.31;;;6.61;100.00
41967;BME280;27656;53.068;8.818;2024-01-25T01:19:58;102240.75;;;6.66;100.00
41967;BME280;27656;53.068;8.818;2024-01-25T01:22:24;102248.03;;;6.75;100.00
41967;BME280;27656;53.068;8.818;2024-01-25T01:24:51;102248.69;;;6.78;100.00
41967;BME280;27656;53.068;8.818;2024-01-25T01:27:17;102241.00;;;6.75;100.00
41967;BME280;27656;53.068;8.818;2024-01-25T01:29:44;102239.22;;;6.76;100.00
41967;BME280;27656;53.068;8.818;2024-01-25T01:32:11;102248.13;;;6.73;100.00
41967;BME280;27656;53.068;8.818;2024-01-25T01:34:37;102250.97;;;6.70;100.00
41967;BME280;27656;53.068;8.818;2024-01-25T01:37:04;102249.00;;;6.59;100.00
41967;BME280;27656;53.068;8.818;2024-01-25T01:39:30;102254.25;;;6.59;100.00
41967;BME280;27656;53.068;8.818;2024-01-25T01:41:57;102256.78;;;6.61;100.00
41967;BME280;27656;53.068;8.818;2024-01-25T01:44:24;102249.31;;;6.55;100.00
41967;BME280;27656;53.068;8.818;2024-01-25T01:46:50;102245.94;;;6.53;100.00
41967;BME280;27656;53.068;8.818;2024-01-25T01:49:18;102260.09;;;6.50;100.00
41967;BME280;27656;53.068;8.818;2024-01-25T01:51:45;102264.59;;;6.48;100.00
41967;BME280;27656;53.068;8.818;2024-01-25T01:54:12;102259.63;;;6.44;100.00
41967;BME280;27656;53.068;8.818;2024-01-25T01:56:39;102264.03;;;6.43;100.00
41967;BME280;27656;53.068;8.818;2024-01-25T01:59:10;102263.06;;;6.44;100.00
41967;BME280;27656;53.068;8.818;2024-01-25T02:01:37;102275.44;;;6.42;100.00
41967;BME280;27656;53.068;8.818;2024-01-25T02:04:05;102273.38;;;6.47;100.00
41967;BME280;27656;53.068;8.818;2024-01-25T02:06:32;102279.50;;;6.48;100.00
41967;BME280;27656;53.068;8.818;2024-01-25T02:08:59;102282.66;;;6.53;100.00
41967;BME280;27656;53.068;8.818;2024-01-25T02:11:26;102285.84;;;6.58;100.00
41967;BME280;27656;53.068;8.818;2024-01-25T02:13:52;102284.81;;;6.61;100.00
41967;BME280;27656;53.068;8.818;2024-01-25T02:16:19;102281.16;;;6.49;100.00
41967;BME280;27656;53.068;8.818;2024-01-25T02:18:47;102281.16;;;6.49;100.00
41967;BME280;27656;53.068;8.818;2024-01-25T02:21:14;102278.53;;;6.49;100.00
41967;BME280;27656;53.068;8.818;2024-01-25T02:23:41;102281.72;;;6.54;100.00
41967;BME280;27656;53.068;8.818;2024-01-25T02:26:08;102280.22;;;6.50;100.00
41967;BME280;27656;53.068;8.818;2024-01-25T02:28:34;102283.97;;;6.46;100.00
41967;BME280;27656;53.068;8.818;2024-01-25T02:31:02;102286.22;;;6.52;100.00
41967;BME280;27656;53.068;8.818;2024-01-25T02:33:28;102288.34;;;6.45;100.00
41967;BME280;27656;53.068;8.818;2024-01-25T02:35:55;102289.13;;;6.47;100.00
41967;BME280;27656;53.068;8.818;2024-01-25T02:38:22;102285.00;;;6.43;100.00
41967;BME280;27656;53.068;8.818;2024-01-25T02:40:48;102298.22;;;6.42;100.00
41967;BME280;27656;53.068;8.818;2024-01-25T02:43:16;102288.19;;;6.34;100.00
41967;BME280;27656;53.068;8.818;2024-01-25T02:45:43;102296.69;;;6.23;100.00
41967;BME280;27656;53.068;8.818;2024-01-25T02:48:10;102286.88;;;6.12;100.00
41967;BME280;27656;53.068;8.818;2024-01-25T02:50:37;102287.91;;;6.10;100.00
41967;BME280;27656;53.068;8.818;2024-01-25T02:53:03;102289.03;;;6.20;100.00
41967;BME280;27656;53.068;8.818;2024-01-25T02:55:30;102282.34;;;6.14;100.00
41967;BME280;27656;53.068;8.818;2024-01-25T02:57:56;102296.41;;;6.13;100.00
41967;BME280;27656;53.068;8.818;2024-01-25T03:00:23;102299.97;;;6.12;100.00
41967;BME280;27656;53.068;8.818;2024-01-25T03:02:49;102298.94;;;6.15;100.00
41967;BME280;27656;53.068;8.818;2024-01-25T03:05:16;102316.28;;;6.18;100.00
41967;BME280;27656;53.068;8.818;2024-01-25T03:07:43;102311.94;;;6.16;100.00
41967;BME280;27656;53.068;8.818;2024-01-25T03:10:10;102317.03;;;6.20;100.00
41967;BME280;27656;53.068;8.818;2024-01-25T03:12:36;102322.38;;;6.18;100.00
41967;BME280;27656;53.068;8.818;2024-01-25T03:15:03;102330.97;;;6.20;100.00
41967;BME280;27656;53.068;8.818;2024-01-25T03:17:32;102340.91;;;6.15;100.00
41967;BME280;27656;53.068;8.818;2024-01-25T03:19:59;102342.31;;;6.21;100.00
41967;BME280;27656;53.068;8.818;2024-01-25T03:22:25;102346.69;;;6.06;100.00
41967;BME280;27656;53.068;8.818;2024-01-25T03:24:52;102340.41;;;6.08;100.00
41967;BME280;27656;53.068;8.818;2024-01-25T03:27:19;102331.22;;;6.01;100.00
41967;BME280;27656;53.068;8.818;2024-01-25T03:29:45;102338.91;;;5.88;100.00
41967;BME280;27656;53.068;8.818;2024-01-25T03:32:12;102337.31;;;5.86;100.00
41967;BME280;27656;53.068;8.818;2024-01-25T03:34:38;102349.41;;;5.88;100.00
41967;BME280;27656;53.068;8.818;2024-01-25T03:37:05;102345.53;;;5.95;100.00
41967;BME280;27656;53.068;8.818;2024-01-25T03:39:32;102353.16;;;5.84;100.00
41967;BME280;27656;53.068;8.818;2024-01-25T03:41:58;102349.13;;;5.93;100.00
41967;BME280;27656;53.068;8.818;2024-01-25T03:44:25;102344.53;;;5.98;100.00
41967;BME280;27656;53.068;8.818;2024-01-25T03:46:52;102351.94;;;5.90;100.00
41967;BME280;27656;53.068;8.818;2024-01-25T03:49:18;102356.28;;;5.91;100.00
41967;BME280;27656;53.068;8.818;2024-01-25T03:51:46;102366.84;;;5.89;100.00
41967;BME280;27656;53.068;8.818;2024-01-25T03:54:12;102354.34;;;5.94;100.00
41967;BME280;27656;53.068;8.818;2024-01-25T03:56:39;102366.75;;;5.91;100.00
41967;BME280;27656;53.068;8.818;2024-01-25T03:59:05;102367.59;;;5.91;100.00
41967;BME280;27656;53.068;8.818;2024-01-25T04:01:46;102378.16;;;5.90;100.00
41967;BME280;27656;53.068;8.818;2024-01-25T04:04:14;102380.59;;;5.93;100.00
41967;BME280;27656;53.068;8.818;2024-01-25T04:06:44;102381.38;;;5.95;100.00
41967;BME280;27656;53.068;8.818;2024-01-25T04:09:14;102385.44;;;6.01;100.00
41967;BME280;27656;53.068;8.818;2024-01-25T04:11:43;102392.56;;;5.99;100.00
41967;BME280;27656;53.068;8.818;2024-01-25T04:14:10;102396.97;;;5.98;100.00
41967;BME280;27656;53.068;8.818;2024-01-25T04:16:36;102391.44;;;6.03;100.00
41967;BME280;27656;53.068;8.818;2024-01-25T04:19:03;102386.47;;;5.98;100.00
41967;BME280;27656;53.068;8.818;2024-01-25T04:21:30;102386.09;;;6.04;100.00
41967;BME280;27656;53.068;8.818;2024-01-25T04:23:56;102390.34;;;5.91;100.00
41967;BME280;27656;53.068;8.818;2024-01-25T04:26:23;102394.66;;;5.92;100.00
41967;BME280;27656;53.068;8.818;2024-01-25T04:28:49;102394.16;;;6.01;100.00
41967;BME280;27656;53.068;8.818;2024-01-25T04:31:16;102402.44;;;5.93;100.00
41967;BME280;27656;53.068;8.818;2024-01-25T04:33:44;102405.06;;;5.93;100.00
41967;BME280;27656;53.068;8.818;2024-01-25T04:36:14;102407.34;;;6.00;100.00
41967;BME280;27656;53.068;8.818;2024-01-25T04:38:41;102415.19;;;6.00;100.00
41967;BME280;27656;53.068;8.818;2024-01-25T04:41:07;102414.56;;;5.96;100.00
41967;BME280;27656;53.068;8.818;2024-01-25T04:43:37;102417.75;;;6.01;100.00
41967;BME280;27656;53.068;8.818;2024-01-25T04:46:04;102411.16;;;5.94;100.00
41967;BME280;27656;53.068;8.818;2024-01-25T04:48:31;102407.75;;;5.92;100.00
41967;BME280;27656;53.068;8.818;2024-01-25T04:50:58;102414.78;;;5.91;100.00
41967;BME280;27656;53.068;8.818;2024-01-25T04:53:25;102413.19;;;5.89;100.00
41967;BME280;27656;53.068;8.818;2024-01-25T04:55:54;102412.31;;;5.88;100.00
41967;BME280;27656;53.068;8.818;2024-01-25T04:58:21;102411.56;;;5.86;100.00
41967;BME280;27656;53.068;8.818;2024-01-25T05:00:48;102399.31;;;5.87;100.00
41967;BME280;27656;53.068;8.818;2024-01-25T05:03:17;102418.81;;;5.81;100.00
41967;BME280;27656;53.068;8.818;2024-01-25T05:05:43;102418.56;;;5.86;100.00
41967;BME280;27656;53.068;8.818;2024-01-25T05:08:10;102415.56;;;5.78;100.00
41967;BME280;27656;53.068;8.818;2024-01-25T05:10:36;102410.66;;;5.71;100.00
41967;BME280;27656;53.068;8.818;2024-01-25T05:13:03;102418.94;;;5.80;100.00
41967;BME280;27656;53.068;8.818;2024-01-25T05:15:32;102419.78;;;5.80;100.00
41967;BME280;27656;53.068;8.818;2024-01-25T05:17:58;102413.69;;;5.80;100.00
41967;BME280;27656;53.068;8.818;2024-01-25T05:20:25;102408.44;;;5.80;100.00
41967;BME280;27656;53.068;8.818;2024-01-25T05:22:59;102407.50;;;5.81;100.00
41967;BME280;27656;53.068;8.818;2024-01-25T05:25:26;102406.50;;;5.83;100.00
41967;BME280;27656;53.068;8.818;2024-01-25T05:27:54;102409.38;;;5.79;100.00
41967;BME280;27656;53.068;8.818;2024-01-25T05:30:22;102402.25;;;5.81;100.00
41967;BME280;27656;53.068;8.818;2024-01-25T05:32:48;102409.28;;;5.80;100.00
41967;BME280;27656;53.068;8.818;2024-01-25T05:35:16;102405.06;;;5.78;100.00
41967;BME280;27656;53.068;8.818;2024-01-25T05:37:43;102417.84;;;5.68;100.00
41967;BME280;27656;53.068;8.818;2024-01-25T05:40:10;102427.38;;;5.85;100.00
41967;BME280;27656;53.068;8.818;2024-01-25T05:42:37;102423.41;;;5.78;100.00
41967;BME280;27656;53.068;8.818;2024-01-25T05:45:05;102433.28;;;5.88;100.00
41967;BME280;27656;53.068;8.818;2024-01-25T05:47:31;102433.28;;;5.88;100.00
41967;BME280;27656;53.068;8.818;2024-01-25T05:49:58;102443.97;;;6.01;100.00
41967;BME280;27656;53.068;8.818;2024-01-25T05:52:25;102440.06;;;6.08;100.00
41967;BME280;27656;53.068;8.818;2024-01-25T05:54:52;102442.09;;;6.03;100.00
41967;BME280;27656;53.068;8.818;2024-01-25T05:57:18;102446.84;;;5.97;100.00
41967;BME280;27656;53.068;8.818;2024-01-25T05:59:46;102443.03;;;6.02;100.00
41967;BME280;27656;53.068;8.818;2024-01-25T06:02:13;102445.50;;;6.05;100.00
41967;BME280;27656;53.068;8.818;2024-01-25T06:04:40;102446.31;;;6.06;100.00
41967;BME280;27656;53.068;8.818;2024-01-25T06:07:07;102452.22;;;6.09;100.00
41967;BME280;27656;53.068;8.818;2024-01-25T06:09:34;102445.38;;;6.07;100.00
41967;BME280;27656;53.068;8.818;2024-01-25T06:12:01;102454.28;;;6.04;100.00
41967;BME280;27656;53.068;8.818;2024-01-25T06:14:28;102465.28;;;5.95;100.00
41967;BME280;27656;53.068;8.818;2024-01-25T06:16:58;102454.53;;;6.00;100.00
41967;BME280;27656;53.068;8.818;2024-01-25T06:19:25;102452.34;;;6.08;100.00
41967;BME280;27656;53.068;8.818;2024-01-25T06:21:51;102457.56;;;6.08;100.00
41967;BME280;27656;53.068;8.818;2024-01-25T06:24:18;102456.06;;;6.04;100.00
41967;BME280;27656;53.068;8.818;2024-01-25T06:26:44;102454.53;;;6.00;100.00
41967;BME280;27656;53.068;8.818;2024-01-25T06:29:11;102469.16;;;6.04;100.00
41967;BME280;27656;53.068;8.818;2024-01-25T06:31:44;102462.50;;;5.98;100.00
41967;BME280;27656;53.068;8.818;2024-01-25T06:34:11;102465.50;;;5.90;100.00
41967;BME280;27656;53.068;8.818;2024-01-25T06:36:38;102474.22;;;5.91;100.00
41967;BME280;27656;53.068;8.818;2024-01-25T06:39:05;102477.47;;;5.96;100.00
41967;BME280;27656;53.068;8.818;2024-01-25T06:41:32;102473.72;;;6.00;100.00
41967;BME280;27656;53.068;8.818;2024-01-25T06:43:59;102487.19;;;5.94;100.00
41967;BME280;27656;53.068;8.818;2024-01-25T06:46:25;102490.66;;;5.94;100.00
41967;BME280;27656;53.068;8.818;2024-01-25T06:48:52;102502.31;;;5.89;100.00
41967;BME280;27656;53.068;8.818;2024-01-25T06:51:19;102507.09;;;5.81;100.00
41967;BME280;27656;53.068;8.818;2024-01-25T06:53:45;102508.47;;;5.88;100.00
41967;BME280;27656;53.068;8.818;2024-01-25T06:56:13;102511.84;;;5.90;100.00
41967;BME280;27656;53.068;8.818;2024-01-25T06:58:39;102511.91;;;5.88;100.00
41967;BME280;27656;53.068;8.818;2024-01-25T07:01:06;102527.06;;;5.83;100.00
41967;BME280;27656;53.068;8.818;2024-01-25T07:03:33;102532.28;;;5.83;100.00
41967;BME280;27656;53.068;8.818;2024-01-25T07:06:00;102539.91;;;5.88;100.00
41967;BME280;27656;53.068;8.818;2024-01-25T07:08:27;102542.88;;;5.82;100.00
41967;BME280;27656;53.068;8.818;2024-01-25T07:10:53;102543.72;;;5.82;100.00
41967;BME280;27656;53.068;8.818;2024-01-25T07:13:22;102542.28;;;5.92;100.00
41967;BME280;27656;53.068;8.818;2024-01-25T07:15:50;102543.91;;;5.95;100.00
41967;BME280;27656;53.068;8.818;2024-01-25T07:18:20;102538.91;;;5.90;100.00
41967;BME280;27656;53.068;8.818;2024-01-25T07:20:47;102540.16;;;5.83;100.00
41967;BME280;27656;53.068;8.818;2024-01-25T07:23:14;102553.38;;;5.82;100.00
41967;BME280;27656;53.068;8.818;2024-01-25T07:25:40;102561.81;;;5.87;100.00
41967;BME280;27656;53.068;8.818;2024-01-25T07:28:07;102565.28;;;5.87;100.00
41967;BME280;27656;53.068;8.818;2024-01-25T07:30:34;102566.59;;;5.96;100.00
41967;BME280;27656;53.068;8.818;2024-01-25T07:33:00;102573.75;;;5.92;100.00
41967;BME280;27656;53.068;8.818;2024-01-25T07:35:28;102573.59;;;5.95;100.00
41967;BME280;27656;53.068;8.818;2024-01-25T07:37:54;102579.47;;;6.01;100.00
41967;BME280;27656;53.068;8.818;2024-01-25T07:40:21;102573.44;;;5.99;100.00
41967;BME280;27656;53.068;8.818;2024-01-25T07:42:47;102573.63;;;6.11;100.00
41967;BME280;27656;53.068;8.818;2024-01-25T07:45:14;102577.94;;;6.12;100.00
41967;BME280;27656;53.068;8.818;2024-01-25T07:47:42;102583.19;;;6.12;100.00
41967;BME280;27656;53.068;8.818;2024-01-25T07:50:08;102578.19;;;6.08;100.00
41967;BME280;27656;53.068;8.818;2024-01-25T07:52:35;102577.06;;;6.12;100.00
41967;BME280;27656;53.068;8.818;2024-01-25T07:55:02;102579.81;;;6.10;100.00
41967;BME280;27656;53.068;8.818;2024-01-25T07:57:31;102586.81;;;6.10;100.00
41967;BME280;27656;53.068;8.818;2024-01-25T07:59:58;102584.22;;;6.10;100.00
41967;BME280;27656;53.068;8.818;2024-01-25T08:02:24;102581.47;;;6.11;100.00
41967;BME280;27656;53.068;8.818;2024-01-25T08:04:51;102581.59;;;6.10;100.00
41967;BME280;27656;53.068;8.818;2024-01-25T08:07:18;102586.91;;;6.08;100.00
41967;BME280;27656;53.068;8.818;2024-01-25T08:09:44;102590.44;;;6.07;100.00
41967;BME280;27656;53.068;8.818;2024-01-25T08:12:11;102592.41;;;6.20;100.00
41967;BME280;27656;53.068;8.818;2024-01-25T08:14:37;102596.63;;;6.22;100.00
41967;BME280;27656;53.068;8.818;2024-01-25T08:17:03;102604.31;;;6.25;100.00
41967;BME280;27656;53.068;8.818;2024-01-25T08:19:30;102609.50;;;6.27;100.00
41967;BME280;27656;53.068;8.818;2024-01-25T08:21:57;102616.50;;;6.26;100.00
41967;BME280;27656;53.068;8.818;2024-01-25T08:24:24;102605.75;;;6.31;100.00
41967;BME280;27656;53.068;8.818;2024-01-25T08:26:50;102606.69;;;6.30;100.00
41967;BME280;27656;53.068;8.818;2024-01-25T08:29:17;102615.16;;;6.35;100.00
41967;BME280;27656;53.068;8.818;2024-01-25T08:31:43;102607.97;;;6.39;100.00
41967;BME280;27656;53.068;8.818;2024-01-25T08:34:10;102600.09;;;6.39;100.00
41967;BME280;27656;53.068;8.818;2024-01-25T08:36:37;102600.09;;;6.39;100.00
41967;BME280;27656;53.068;8.818;2024-01-25T08:39:03;102594.94;;;6.37;100.00
41967;BME280;27656;53.068;8.818;2024-01-25T08:41:31;102602.53;;;6.42;100.00
41967;BME280;27656;53.068;8.818;2024-01-25T08:43:58;102595.69;;;6.39;100.00
41967;BME280;27656;53.068;8.818;2024-01-25T08:46:25;102606.84;;;6.43;100.00
41967;BME280;27656;53.068;8.818;2024-01-25T08:48:52;102612.28;;;6.40;100.00
41967;BME280;27656;53.068;8.818;2024-01-25T08:51:18;102611.00;;;6.47;100.00
41967;BME280;27656;53.068;8.818;2024-01-25T08:53:45;102610.66;;;6.53;100.00
41967;BME280;27656;53.068;8.818;2024-01-25T08:56:11;102607.28;;;6.51;100.00
41967;BME280;27656;53.068;8.818;2024-01-25T08:58:38;102611.59;;;6.52;100.00
41967;BME280;27656;53.068;8.818;2024-01-25T09:01:04;102608.13;;;6.51;100.00
41967;BME280;27656;53.068;8.818;2024-01-25T09:03:31;102606.84;;;6.58;100.00
41967;BME280;27656;53.068;8.818;2024-01-25T09:05:58;102618.94;;;6.61;100.00
41967;BME280;27656;53.068;8.818;2024-01-25T09:08:24;102618.69;;;6.66;100.00
41967;BME280;27656;53.068;8.818;2024-01-25T09:10:51;102621.88;;;6.71;100.00
41967;BME280;27656;53.068;8.818;2024-01-25T09:13:18;102625.97;;;6.76;100.00
41967;BME280;27656;53.068;8.818;2024-01-25T09:15:45;102633.91;;;6.75;100.00
41967;BME280;27656;53.068;8.818;2024-01-25T09:18:13;102631.28;;;6.75;100.00
41967;BME280;27656;53.068;8.818;2024-01-25T09:20:40;102627.44;;;6.80;100.00
41967;BME280;27656;53.068;8.818;2024-01-25T09:23:07;102633.47;;;6.83;100.00
41967;BME280;27656;53.068;8.818;2024-01-25T09:25:33;102640.63;;;6.95;100.00
41967;BME280;27656;53.068;8.818;2024-01-25T09:28:01;102645.47;;;7.03;100.00
41967;BME280;27656;53.068;8.818;2024-01-25T09:30:28;102652.22;;;7.07;100.00
41967;BME280;27656;53.068;8.818;2024-01-25T09:32:55;102657.19;;;7.11;100.00
41967;BME280;27656;53.068;8.818;2024-01-25T09:35:22;102659.09;;;7.23;100.00
41967;BME280;27656;53.068;8.818;2024-01-25T09:37:49;102660.13;;;7.21;100.00
41967;BME280;27656;53.068;8.818;2024-01-25T09:40:19;102658.94;;;7.27;100.00
41967;BME280;27656;53.068;8.818;2024-01-25T09:42:49;102670.38;;;7.26;100.00
41967;BME280;27656;53.068;8.818;2024-01-25T09:45:16;102675.19;;;7.33;100.00
41967;BME280;27656;53.068;8.818;2024-01-25T09:47:48;102675.84;;;7.37;100.00
41967;BME280;27656;53.068;8.818;2024-01-25T09:50:14;102677.06;;;7.31;100.00
41967;BME280;27656;53.068;8.818;2024-01-25T09:52:43;102680.06;;;7.39;100.00
41967;BME280;27656;53.068;8.818;2024-01-25T09:55:11;102673.03;;;7.40;100.00
41967;BME280;27656;53.068;8.818;2024-01-25T09:57:45;102685.81;;;7.46;100.00
41967;BME280;27656;53.068;8.818;2024-01-25T10:00:13;102688.25;;;7.49;100.00
41967;BME280;27656;53.068;8.818;2024-01-25T10:02:40;102682.78;;;7.38;100.00
41967;BME280;27656;53.068;8.818;2024-01-25T10:05:07;102688.19;;;7.20;100.00
41967;BME280;27656;53.068;8.818;2024-01-25T10:07:41;102693.63;;;7.17;100.00
41967;BME280;27656;53.068;8.818;2024-01-25T10:10:09;102687.44;;;7.18;100.00
41967;BME280;27656;53.068;8.818;2024-01-25T10:12:38;102696.81;;;7.22;100.00
41967;BME280;27656;53.068;8.818;2024-01-25T10:15:05;102693.03;;;7.12;100.00
41967;BME280;27656;53.068;8.818;2024-01-25T10:17:32;102698.03;;;7.17;100.00
41967;BME280;27656;53.068;8.818;2024-01-25T10:20:19;102698.75;;;7.35;100.00
41967;BME280;27656;53.068;8.818;2024-01-25T10:22:48;102708.97;;;7.39;100.00
41967;BME280;27656;53.068;8.818;2024-01-25T10:25:15;102708.13;;;7.39;100.00
41967;BME280;27656;53.068;8.818;2024-01-25T10:27:42;102714.47;;;7.20;100.00
41967;BME280;27656;53.068;8.818;2024-01-25T10:30:10;102726.81;;;7.34;100.00
41967;BME280;27656;53.068;8.818;2024-01-25T10:32:37;102723.56;;;7.45;100.00
41967;BME280;27656;53.068;8.818;2024-01-25T10:35:06;102730.41;;;7.48;100.00
41967;BME280;27656;53.068;8.818;2024-01-25T10:37:36;102727.53;;;7.52;100.00
41967;BME280;27656;53.068;8.818;2024-01-25T10:40:05;102728.63;;;7.48;100.00
41967;BME280;27656;53.068;8.818;2024-01-25T10:42:32;102722.31;;;7.36;100.00
41967;BME280;27656;53.068;8.818;2024-01-25T10:44:58;102722.88;;;7.41;100.00
41967;BME280;27656;53.068;8.818;2024-01-25T10:47:25;102721.94;;;7.42;100.00
41967;BME280;27656;53.068;8.818;2024-01-25T10:49:53;102716.50;;;7.46;100.00
41967;BME280;27656;53.068;8.818;2024-01-25T10:52:20;102714.75;;;7.60;100.00
41967;BME280;27656;53.068;8.818;2024-01-25T10:54:47;102708.69;;;7.74;100.00
41967;BME280;27656;53.068;8.818;2024-01-25T10:57:16;102710.00;;;7.81;100.00
41967;BME280;27656;53.068;8.818;2024-01-25T10:59:42;102703.16;;;7.79;100.00
41967;BME280;27656;53.068;8.818;2024-01-25T11:02:09;102708.69;;;7.89;100.00
41967;BME280;27656;53.068;8.818;2024-01-25T11:04:36;102699.22;;;8.00;100.00
41967;BME280;27656;53.068;8.818;2024-01-25T11:07:07;102704.47;;;8.00;100.00
41967;BME280;27656;53.068;8.818;2024-01-25T11:09:38;102701.09;;;8.13;100.00
41967;BME280;27656;53.068;8.818;2024-01-25T11:12:11;102696.19;;;8.21;100.00
41967;BME280;27656;53.068;8.818;2024-01-25T11:14:39;102697.88;;;8.36;100.00
41967;BME280;27656;53.068;8.818;2024-01-25T11:17:22;102694.75;;;8.58;100.00
41967;BME280;27656;53.068;8.818;2024-01-25T11:19:49;102695.97;;;8.67;100.00
41967;BME280;27656;53.068;8.818;2024-01-25T11:22:19;102687.25;;;8.79;100.00
41967;BME280;27656;53.068;8.818;2024-01-25T11:24:46;102682.25;;;8.89;100.00
41967;BME280;27656;53.068;8.818;2024-01-25T11:27:15;102686.38;;;8.93;100.00
41967;BME280;27656;53.068;8.818;2024-01-25T11:29:41;102685.38;;;8.81;100.00
41967;BME280;27656;53.068;8.818;2024-01-25T11:32:09;102683.78;;;8.79;100.00
41967;BME280;27656;53.068;8.818;2024-01-25T11:34:36;102680.25;;;8.65;100.00
41967;BME280;27656;53.068;8.818;2024-01-25T11:37:03;102679.91;;;8.57;100.00
41967;BME280;27656;53.068;8.818;2024-01-25T11:39:31;102667.59;;;8.58;100.00
41967;BME280;27656;53.068;8.818;2024-01-25T11:41:58;102675.31;;;8.32;100.00
41967;BME280;27656;53.068;8.818;2024-01-25T11:44:25;102675.25;;;8.19;100.00
41967;BME280;27656;53.068;8.818;2024-01-25T11:46:55;102672.34;;;7.95;100.00
41967;BME280;27656;53.068;8.818;2024-01-25T11:49:24;102673.75;;;8.01;100.00
41967;BME280;27656;53.068;8.818;2024-01-25T11:51:51;102667.81;;;7.83;100.00
41967;BME280;27656;53.068;8.818;2024-01-25T11:54:18;102674.69;;;8.00;100.00
41967;BME280;27656;53.068;8.818;2024-01-25T11:56:44;102671.97;;;8.01;100.00
41967;BME280;27656;53.068;8.818;2024-01-25T11:59:11;102668.41;;;8.02;100.00
41967;BME280;27656;53.068;8.818;2024-01-25T12:01:39;102666.97;;;7.97;100.00
41967;BME280;27656;53.068;8.818;2024-01-25T12:04:07;102668.28;;;8.04;100.00
41967;BME280;27656;53.068;8.818;2024-01-25T12:06:34;102653.94;;;7.95;100.00
41967;BME280;27656;53.068;8.818;2024-01-25T12:09:11;102659.09;;;7.82;100.00
41967;BME280;27656;53.068;8.818;2024-01-25T12:11:40;102653.00;;;7.82;100.00
41967;BME280;27656;53.068;8.818;2024-01-25T12:14:09;102654.38;;;7.88;100.00
41967;BME280;27656;53.068;8.818;2024-01-25T12:16:36;102659.00;;;7.84;100.00
41967;BME280;27656;53.068;8.818;2024-01-25T12:19:04;102657.13;;;7.86;100.00
41967;BME280;27656;53.068;8.818;2024-01-25T12:21:37;102652.25;;;7.80;100.00
41967;BME280;27656;53.068;8.818;2024-01-25T12:24:05;102660.31;;;7.77;100.00
41967;BME280;27656;53.068;8.818;2024-01-25T12:26:34;102659.75;;;7.86;100.00
41967;BME280;27656;53.068;8.818;2024-01-25T12:29:02;102664.53;;;7.94;100.00
41967;BME280;27656;53.068;8.818;2024-01-25T12:31:29;102669.44;;;7.85;100.00
41967;BME280;27656;53.068;8.818;2024-01-25T12:33:56;102667.47;;;7.89;100.00
41967;BME280;27656;53.068;8.818;2024-01-25T12:36:23;102665.09;;;7.84;100.00
41967;BME280;27656;53.068;8.818;2024-01-25T12:38:50;102668.28;;;7.90;100.00
41967;BME280;27656;53.068;8.818;2024-01-25T12:41:17;102666.91;;;7.84;100.00
41967;BME280;27656;53.068;8.818;2024-01-25T12:43:43;102665.59;;;7.77;100.00
41967;BME280;27656;53.068;8.818;2024-01-25T12:46:10;102662.09;;;7.62;100.00
41967;BME280;27656;53.068;8.818;2024-01-25T12:48:52;102661.69;;;7.54;100.00
41967;BME280;27656;53.068;8.818;2024-01-25T12:51:23;102662.09;;;7.48;100.00